Warning: Javascript must be enabled to use all the features on this page!


Page Loading - Please Wait...

Click to hideNews Bulletins

Streamflow Measurements for the Nation


USGS 11312672 VICTORIA CANAL NR BYRON CA


San Joaquin County, California
Hydrologic Unit Code 18040003
Latitude  37°52'15", Longitude 121°31'48" NAD83
Output formats
HTML table with channel data
HTML table without channel data
Tab-separated data with channel data
Tab-separated data without channel data
Graph of data
Reselect output format
Meas.
Number
  Date       Time Time
Datum
Measurement
Used?
  Who Measuring
Agency
Stream
flow
(ft3/s)
Gage
Height
(ft)
GH
Change
(ft)
Meas.
Duration
(hr)
Meas.
Rated
  Control Flow
Adjust.
Code
 
9842021-10-07 12:53:32PSTYesNSOEDER/EDUBUSGS47210.94 Poor NONE
9832021-10-07 12:48:55PSTYesNSOEDER/EDUBUSGS65510.95 Poor NONE
9822021-10-07 12:38:09PSTYesNSOEDER/EDUBUSGS86711.00 Poor NONE
9812021-10-07 12:33:38PSTYesNSOEDER/EDUBUSGS95111.02 Poor NONE
9802021-10-07 12:22:14PSTYesNSOEDER/EDUBUSGS114011.10 Poor NONE
9792021-10-07 12:17:37PSTYesNSOEDER/EDUBUSGS130011.12 Poor NONE
9782021-08-12 12:24:37PSTYesNSOEDER/HRABUSGS248012.49 Poor NONE
9772021-08-12 12:16:19PSTYesNSOEDER/HRABUSGS256012.56 Poor NONE
9762021-08-12 12:07:33PSTYesNSOEDER/HRABUSGS268012.64 Poor NONE
9752021-08-12 11:57:37PSTYesNSOEDER/HRABUSGS268012.71 Poor NONE
9742021-08-12 11:47:36PSTYesNSOEDER/HRABUSGS278012.79 Poor NONE
9732021-08-12 11:38:54PSTYesNSOEDER/HRABUSGS286012.86 Poor NONE
9722021-06-23 10:03:52PSTYesNSOEDER/HRABUSGS287012.30 Poor NONE
9712021-06-23 09:55:37PSTYesNSOEDER/HRABUSGS291012.38 Poor NONE
9702021-06-23 09:46:15PSTYesNSOEDER/HRABUSGS280012.53 Poor NONE
9692021-06-23 09:35:41PSTYesNSOEDER/HRABUSGS288012.52 Poor NONE
9682021-06-23 09:25:12PSTYesNSOEDER/HRABUSGS270012.59 Poor NONE
9672021-06-23 09:15:50PSTYesNSOEDER/HRABUSGS260012.68 Poor NONE
9662021-04-14 12:37:40PSTYesNSOEDER, HRAUSGS335011.47 Poor NONE
9652021-04-14 12:29:49PSTYesNSOEDER, HRAUSGS335011.53 Poor NONE
9642021-04-14 12:18:30PSTYesNSOEDER, HRAUSGS336011.61 Poor NONE
9632021-04-14 12:09:27PSTYesNSOEDER, HRAUSGS335011.68 Poor NONE
9622021-04-14 11:54:57PSTYesNSOEDER, HRAUSGS340011.79 Poor NONE
9612021-04-14 11:46:10PSTYesNSOEDER, HRAUSGS342011.86 Poor NONE
9602021-02-25 13:55:02PSTYesNSOEDER, HRAUSGS-520012.16 Poor NONE
9592021-02-25 13:48:27PSTYesNSOEDER, HRAUSGS-493012.10 Poor NONE
9582021-02-25 13:41:16PSTYesNSOEDER, HRAUSGS-505012.03 Poor NONE
9572021-02-25 13:33:58PSTYesNSOEDER, HRAUSGS-488011.96 Poor NONE
9562021-02-25 13:25:55PSTYesNSOEDER, HRAUSGS-478011.90 Poor NONE
9552021-02-25 13:17:39PSTYesNSOEDER, HRAUSGS-477011.81 Poor NONE
9542020-12-15 11:37:52PSTYesHR/ NWSUSGS43111.18 Poor NONE
9532020-12-15 11:31:05PSTYesHR/ NWSUSGS57611.21 Poor NONE
9522020-12-15 11:23:47PSTYesHR/ NWSUSGS46611.24 Poor NONE
9512020-12-15 11:17PSTYesHR/ NWSUSGS52111.27 Poor NONE
9502020-12-15 11:11:25PSTYesHR/ NWSUSGS57711.31 Poor NONE
9492020-12-15 11:05:47PSTYesHR/ NWSUSGS45511.36 Poor NONE
9482020-09-16 14:53:09PSTYesHR/NWSUSGS-489011.65 Poor NONE
9472020-09-16 14:45:40PSTYesHR/NWSUSGS-491011.56 Poor NONE
9462020-09-16 14:38:04PSTYesHR/NWSUSGS-493011.48 Poor NONE
9452020-09-16 14:31:11PSTYesHR/NWSUSGS-494011.41 Poor NONE
9442020-09-16 14:24:40PSTYesHR/NWSUSGS-490011.34 Poor NONE
9432020-09-16 14:17:59PSTYesHR/NWSUSGS-492011.29 Poor NONE
9422020-05-20 11:59:47PSTYesNWS/HRUSGS291010.74 Poor NONE
9412020-05-20 11:50:13PSTYesNWS/HRUSGS317010.79 Poor NONE
9402020-05-20 11:41:07PSTYesNWS/HRUSGS315010.84 Poor NONE
9392020-05-20 11:32:34PSTYesNWS/HRUSGS321010.89 Poor NONE
9382020-05-20 11:24:06PSTYesNWS/HRUSGS323010.94 Poor NONE
9372020-05-20 11:15:05PSTYesNWS/HRUSGS335011.01 Poor NONE
9362020-01-29 09:53:08PSTYesNWS/ALCUSGS-694012.47 Poor NONE
9352020-01-29 09:48:22PSTYesNWS/ALCUSGS-693012.45 Poor NONE
9342020-01-29 09:43:27PSTYesNWS/ALCUSGS-711012.43 Poor NONE
9332020-01-29 09:38:11PSTYesNWS/ALCUSGS-687012.41 Poor NONE
9322020-01-29 09:33:05PSTYesNWS/ALCUSGS-678012.39 Poor NONE
9312020-01-29 09:28:22PSTYesNWS/ALCUSGS-688012.36 Poor NONE
9302019-11-25 10:23PSTYesNSACMIUSGS176011.29 Poor NONE
9292019-11-25 10:18:58PSTYesNSACMIUSGS192011.30 Poor NONE
9282019-11-25 10:14:24PSTYesNSACMIUSGS191011.29 Poor NONE
9272019-11-25 10:08:45PSTYesNSACMIUSGS171011.30 Poor NONE
9262019-11-25 10:03:08PSTYesNSACMIUSGS160011.30 Poor NONE
9252019-11-25 09:57:13PSTYesNSACMIUSGS146011.32 Poor NONE
9242019-10-10 10:03:55PSTYesNWS/HRUSGS167010.86 Poor NONE
9232019-10-10 09:59:08PSTYesNWS/HRUSGS171010.89 Poor NONE
9222019-10-10 09:51:35PSTYesNWS/HRUSGS176010.94 Poor NONE
9212019-10-10 09:46:50PSTYesNWS/HRUSGS171010.97 Poor NONE
9202019-10-10 09:39:13PSTYesNWS/HRUSGS186011.01 Poor NONE
9192019-10-10 09:33:43PSTYesNWS/HRUSGS189011.06 Fair NONE
9182019-09-09 13:37PSTYesNS, HRUSGS-568011.82 Good NONE
9172019-09-09 13:33:22PSTYesNS, HRUSGS-563011.80 Good NONE
9162019-09-09 13:29:34PSTYesNS, HRUSGS-548011.78 Good NONE
9152019-09-09 13:26:09PSTYesNS, HRUSGS-513011.77 Good NONE
9142019-09-09 13:22:53PSTYesNS, HRUSGS-498011.75 Good NONE
9132019-09-09 13:19:36PSTYesNS, HRUSGS-496011.73 Good NONE
9122019-09-09 10:18:38PSTYesNS, HRUSGS87610.52 Good NONE
9112019-09-09 10:13:23PSTYesNS, HRUSGS77610.54 Good NONE
9102019-09-09 10:08:18PSTYesNS, HRUSGS88110.56 Good NONE
9092019-09-09 09:59:08PSTYesNS, HRUSGS74710.59 Good NONE
9082019-09-09 09:54:33PSTYesNS, HRUSGS83110.59 Good NONE
9072019-09-09 09:49:49PSTYesNS, HRUSGS62110.60 Good NONE
9062019-09-03 12:22:01PSTYesNWS/ZHUSGS-282011.92 Good NONE
9052019-09-03 12:17:15PSTYesNWS/ZHUSGS-284011.95 Good NONE
9042019-09-03 12:12:16PSTYesNWS/ZHUSGS-297011.99 Good NONE
9032019-09-03 12:07:30PSTYesNWS/ZHUSGS-314012.02 Good NONE
9022019-09-03 12:03:03PSTYesNWS/ZHUSGS-333012.05 Good NONE
9012019-09-03 11:58:27PSTYesNWS/ZHUSGS-339012.08 Good NONE
9002019-08-29 12:46:47PSTYesNS/TDUSGS99310.89 Fair NONE
8992019-08-29 12:41:24PSTYesNS/TDUSGS115010.91 Fair NONE
8982019-08-29 12:36:01PSTYesNS/TDUSGS114010.92 Fair NONE
8972019-08-29 12:30:21PSTYesNS/TDUSGS151010.95 Fair NONE
8962019-08-29 12:25:16PSTYesNS/TDUSGS168010.97 Fair NONE
8952019-08-29 12:20:40PSTYesNS/TDUSGS174010.99 Fair NONE
8942019-08-07 09:02:22PSTYesTD/NSUSGS-437012.08 Unspecified NONE
8932019-08-07 08:58:04PSTYesTD/NSUSGS-433012.04 Unspecified NONE
8922019-08-07 08:53:53PSTYesTD/NSUSGS-443012.00 Unspecified NONE
8912019-08-07 08:49:28PSTYesTD/NSUSGS-444011.95 Unspecified NONE
8902019-08-07 08:44:08PSTYesTD/NSUSGS-452011.91 Unspecified NONE
8892019-08-07 08:39:19PSTYesTD/NSUSGS-441011.80 Unspecified NONE
8882019-08-07 08:33:10PSTYesTD/NSUSGS-4390 Unspecified NONE
8872019-08-07 08:29:02PSTYesTD/NSUSGS-437011.76 Unspecified NONE
8862019-08-07 08:24:51PSTYesTD/NSUSGS-431011.73 Unspecified NONE
8852019-08-07 08:20:25PSTYesTD/NSUSGS-427011.69 Unspecified NONE
8842019-06-05 09:41:45PSTYesNS/TDUSGS111013.64 Fair NONE
8832019-06-05 09:35:18PSTYesNS/TDUSGS106013.68 Fair NONE
8822019-06-05 09:29:02PSTYesNS/TDUSGS122013.73 Fair NONE
8812019-06-05 09:23:14PSTYesNS/TDUSGS116013.78 Fair NONE
8802019-06-05 09:17:56PSTYesNS/TDUSGS111013.83 Fair NONE
8792019-06-05 09:11:41PSTYesNS/TDUSGS122013.88 Fair NONE
8782019-04-11 12:25:41PSTYesNS/ACUSGS415013.45 Fair NONE
8772019-04-11 12:20:44PSTYesNS/ACUSGS421013.48 Fair NONE
8762019-04-11 12:15:43PSTYesNS/ACUSGS404013.52 Fair NONE
8752019-04-11 12:10:51PSTYesNS/ACUSGS400013.55 Fair NONE
8742019-04-11 12:04:37PSTYesNS/ACUSGS400013.59 Fair NONE
8732019-04-11 11:58:46PSTYesNS/ACUSGS392013.62 Fair NONE
8722019-02-06 10:54:38PSTYesNS/ACUSGS-210012.50 Fair NONE
8712019-02-06 10:49:50PSTYesNS/ACUSGS-224012.53 Good NONE
8702019-02-06 10:45:11PSTYesNS/ACUSGS-239012.56 Good NONE
8692019-02-06 10:40:45PSTYesNS/ACUSGS-241012.59 Good NONE
8682019-02-06 10:36:14PSTYesNS/ACUSGS-265012.62 Good NONE
8672019-02-06 10:30:57PSTYesNS/ACUSGS-279012.66 Good NONE
8662018-09-25 12:11:38PSTYesTV, NS, ACUSGS-111010.81 Fair NONE
8652018-09-25 12:03:36PSTYesTV, NS, ACUSGS-126010.86 Fair NONE
8642018-09-25 11:50:47PSTYesTV, NS, ACUSGS-131010.94 Fair NONE
8632018-09-25 11:45:38PSTYesTV, NS, ACUSGS-133010.98 Fair NONE
8622018-09-25 11:38:15PSTYesTV, NS, ACUSGS-137011.03 Fair NONE
8612018-09-25 11:32:54PSTYesTV, NS, ACUSGS-137011.07 Fair NONE
8602018-08-07 10:51:32PSTYesNS/ACUSGS-253010.71 Fair NONE
8592018-08-07 10:45:44PSTYesNS/ACUSGS-200010.68 Fair NONE
8582018-08-07 10:40:19PSTYesNS/ACUSGS-172010.65 Good NONE
8572018-08-07 10:32:06PSTYesNS/ACUSGS-107010.60 Fair NONE
8562018-08-07 10:22:20PSTYesNS/ACUSGS-77010.54 Fair NONE
8552018-08-07 10:14:25PSTYesNS/ACUSGS-50510.51 Fair NONE
8542018-06-13 10:49:07PSTYesNS/MIUSGS151011.55 Fair NONE
8532018-06-13 10:41:11PSTYesNS/MIUSGS160011.61 Fair NONE
8522018-06-13 10:30:11PSTYesNS/MIUSGS162011.71 Fair NONE
8512018-06-13 10:17:32PSTYesNS/MIUSGS189011.81 Fair NONE
8502018-06-13 10:08:15PSTYesNS/MIUSGS176011.86 Fair NONE
8492018-06-13 10:01:22PSTYesNS/MIUSGS153011.92 Fair NONE
8482018-04-24 11:18:51PSTYesNWS/CCUSGS-341013.20 Fair NONE
8472018-04-24 11:13:17PSTYesNWS/CCUSGS-338013.16 Fair NONE
8462018-04-24 11:07:36PSTYesNWS/CCUSGS-325013.12 Fair NONE
8452018-04-24 11:01:29PSTYesNWS/CCUSGS-305013.08 Fair NONE
8442018-04-24 10:55:33PSTYesNWS/CCUSGS-321013.04 Fair NONE
8432018-04-24 10:47:46PSTYesNWS/CCUSGS-299012.97 Fair NONE
8422018-02-01 13:24:17PSTYesNWS/RPJUSGS-58511.34 Fair NONE
8412018-02-01 13:16:52PSTYesNWS/RPJUSGS11711.28 Poor NONE
8402018-02-01 13:07:32PSTYesNWS/RPJUSGS56311.23 Fair NONE
8392018-02-01 12:59:55PSTYesNWS/RPJUSGS106011.21 Fair NONE
8382018-02-01 12:52:16PSTYesNWS/RPJUSGS140011.20 Fair NONE
8372018-02-01 12:45:51PSTYesNWS/RPJUSGS153011.21 Fair NONE
8362017-11-21 10:10:46PSTYesNS/RJUSGS-625012.10 Good NONE
8352017-11-21 10:03:58PSTYesNS/RJUSGS-631012.11 Good NONE
8342017-11-21 09:57:12PSTYesNS/RJUSGS-647012.13 Good NONE
8332017-11-21 09:50:31PSTYesNS/RJUSGS-640012.13 Good NONE
8322017-11-21 09:43:59PSTYesNS/RJUSGS-688012.14 Good NONE
8312017-11-21 09:37:42PSTYesNS/RJUSGS-715012.14 Good NONE
8302017-10-06 13:26:31PSTYesNWS,TVUSGS24610.79 Fair NONE
8292017-10-06 13:17:39PSTYesNWS,TVUSGS82210.73 Good NONE
8282017-10-06 13:08:06PSTYesNWS,TVUSGS138010.71 Good NONE
8272017-10-06 12:59:35PSTYesNWS,TVUSGS172010.71 Good NONE
8262017-10-06 12:51:05PSTYesNWS,TVUSGS189010.72 Good NONE
8252017-10-06 12:43:16PSTYesNWS,TVUSGS208010.75 Good NONE
8242017-09-19 10:24:18PSTYesNWS,JBDUSGS70111.64 Fair NONE
8232017-09-19 10:18:14PSTYesNWS,JBDUSGS37711.68 Fair NONE
8222017-09-19 10:12:06PSTYesNWS,JBDUSGS33811.73 Good NONE
8212017-09-19 10:06:40PSTYesNWS,JBDUSGS22011.76 Fair NONE
8202017-09-19 10:01:31PSTYesNWS,JBDUSGS25811.79 Fair NONE
8192017-09-19 09:56:41PSTYesNWS,JBDUSGS11911.83 Fair NONE
2017-07-26 10:26:56PSTNo
8182017-07-12 09:56:31PSTYesNS/BFUSGS-24413.16 GoodVegetationModerateNONE
8172017-07-12 09:51:12PSTYesNS/BFUSGS-43213.21 GoodVegetationModerateNONE
8162017-07-12 09:45:52PSTYesNS/BFUSGS-66013.26 GoodVegetationModerateNONE
8152017-07-12 09:40:36PSTYesNS/BFUSGS-84013.30 GoodVegetationModerateNONE
8142017-07-12 09:35:38PSTYesNS/BFUSGS-88713.35 GoodVegetationModerateNONE
8132017-07-12 09:30:40PSTYesNS/BFUSGS-119013.41 GoodVegetationModerateNONE
8122017-05-18 10:25:05PSTYesNWS/TVUSGS137013.68 Fair NONE
8112017-05-18 10:17:05PSTYesNWS/TVUSGS113013.69 Good NONE
8102017-05-18 10:08:10PSTYesNWS/TVUSGS87713.69 Good NONE
8092017-05-18 10:00:33PSTYesNWS/TVUSGS68113.68 Good NONE
8082017-05-18 09:54:12PSTYesNWS/TVUSGS64913.67 Good NONE
8072017-05-18 09:46:19PSTYesNWS/TVUSGS33313.65 Fair NONE
8062017-02-16 11:27:30PSTYesBS/WFUSGS-76.115.72 Poor NONE
8052017-02-16 11:21:30PSTYesBS/WFUSGS-34915.76 Fair NONE
8042017-02-16 11:15:30PSTYesBS/WFUSGS-90315.80 Good NONE
8032017-02-16 11:08PSTYesBS/WFUSGS-125015.85 Good NONE
8022017-02-16 11:01PSTYesBS/WFUSGS-191015.88 Good NONE
8012017-02-16 10:54PSTYesBS/WFUSGS-231015.93 Good NONE
8002017-01-13 13:48:39PSTYesND/BFUSGS-361013.80 Good NONE
7992016-11-29 14:21:20PSTYesRPJ,NjdUSGS-661011.83 Good NONE
7982016-11-29 14:15:09PSTYesRPJ,NjdUSGS-641011.79 Good NONE
7972016-11-29 14:09:14PSTYesRPJ,NjdUSGS-646011.75 Good NONE
7962016-11-29 14:03:11PSTYesRPJ,NjdUSGS-607011.72 Good NONE
7952016-11-29 13:57:30PSTYesRPJ,NjdUSGS-611011.68 Good NONE
7942016-11-29 13:50:42PSTYesRPJ,NjdUSGS-588011.64 Good NONE
7932016-09-27 12:25:57PSTYesJB, NJDUSGS-481011.66 Good NONE
7922016-09-27 12:19:10PSTYesJB, NJDUSGS-484011.58 Good NONE
7912016-09-27 11:55:25PSTYesJB, NJDUSGS-518011.32 Good NONE
7902016-09-27 11:47:23PSTYesJB, NJDUSGS-491011.24 Good NONE
7892016-09-27 11:36:58PSTYesJB, NJDUSGS-504011.14 Good NONE
7882016-09-27 11:26:01PSTYesJB, NJDUSGS-510011.04 Good NONE
7872016-09-27 11:17:02PSTYesJB, NJDUSGS-486010.96 Good NONE
7862016-09-27 11:07:56PSTYesJB, NJDUSGS-492010.89 Good NONE
7852016-09-27 10:59:12PSTYesJB, NJDUSGS-456010.82 Good NONE
7842016-09-27 10:49:33PSTYesJB, NJDUSGS-427010.73 Good NONE
7832016-09-27 10:38:57PSTYesJB, NJDUSGS-365010.63 Good NONE
7822016-09-27 10:29:50PSTYesJB, NJDUSGS304010.55 Good NONE
7812016-09-08 10:35:53PSTYesJB, NJDUSGS-831012.20 Good NONE
7802016-09-08 10:27:43PSTYesJB, NJDUSGS-866012.18 Good NONE
7792016-09-08 10:19:53PSTYesJB, NJDUSGS-884012.15 Good NONE
7782016-09-08 10:11:16PSTYesJB, NJDUSGS-873012.12 Good NONE
7772016-09-08 10:01:04PSTYesJB, NJDUSGS-866012.09 Good NONE
7762016-09-08 09:49:35PSTYesJB, NJDUSGS-814012.07 Good NONE
7752016-06-29 14:13:24PSTYesNJD, WFUSGS-350013.06 Good NONE
7742016-06-29 14:04:46PSTYesNJD, WFUSGS-372013.04 Good NONE
7732016-06-29 13:56:06PSTYesNJD, WFUSGS-403013.02 Good NONE
7722016-06-29 13:46:13PSTYesNJD, WFUSGS-404012.98 Good NONE
7712016-06-29 13:37:58PSTYesNJD, WFUSGS-427012.95 Good NONE
7702016-06-29 13:29:19PSTYesNJD, WFUSGS-415012.91 Good NONE
7692016-01-28 14:14:24PSTYesNJD/SPHUSGS278011.72 Good NONE
7682016-01-28 14:06:17PSTYesNJD/SPHUSGS245011.76 Good NONE
7672016-01-28 13:58:36PSTYesNJD/SPHUSGS280011.82 Good NONE
7662016-01-28 13:46:11PSTYesNJD/SPHUSGS275011.91 Good NONE
7652016-01-28 13:35:58PSTYesNJD/SPHUSGS254011.93 Good NONE
7642016-01-28 13:25:54PSTYesNJD/SPHUSGS217011.94 Good NONE
7632016-01-28 13:16:58PSTYesNJD/SPHUSGS139011.93 Good NONE
7622016-01-28 13:07:49PSTYesNJD/SPHUSGS49111.98 Good NONE
7612016-01-28 13:00:25PSTYesNJD/SPHUSGS15712.03 Good NONE
7602016-01-28 12:48:44PSTYesNJD/SPHUSGS-60.512.10 Good NONE
7592016-01-28 12:40:58PSTYesNJD/SPHUSGS-32212.19 Good NONE
7582016-01-28 12:31:09PSTYesNJD/SPHUSGS-44012.25 Good NONE
7572016-01-28 12:23:38PSTYesNJD/SPHUSGS-85112.20 Good NONE
7562016-01-28 12:14:35PSTYesNJD/SPHUSGS-117012.36 Good NONE
7552015-12-15 12:49:20PSTYesNJDUSGS342012.45 Poor NONE
7542015-12-15 12:41:19PSTYesNJDUSGS293012.51 Poor NONE
7532015-12-15 12:33:37PSTYesNJDUSGS284012.55 Poor NONE
7522015-12-15 12:26:14PSTYesNJDUSGS265012.60 Poor NONE
7512015-12-15 12:18:56PSTYesNJDUSGS252012.65 Poor NONE
7502015-12-15 12:10:51PSTYesNJDUSGS224012.71 Poor NONE
7492015-12-15 12:03:33PSTYesNJDUSGS227012.76 Poor NONE
7482015-12-15 11:56:45PSTYesNJDUSGS197012.80 Poor NONE
7472015-12-15 11:44:27PSTYesNJDUSGS161012.87 Poor NONE
7462015-12-15 11:37:23PSTYesNJDUSGS131012.91 Poor NONE
7452015-08-12 13:44PSTYesnjdUSGS-3440 Unspecified NONE
7442015-08-12 13:36PSTYesnjdUSGS-2880 Unspecified NONE
7432015-08-12 12:58PSTYesnjdUSGS110 Unspecified NONE
7422015-08-12 12:47PSTYesnjdUSGS632 Unspecified NONE
7412015-08-12 12:39PSTYesnjdUSGS1080 Unspecified NONE
7402015-08-12 12:28PSTYesnjdUSGS1320 Unspecified NONE
7392015-08-12 12:19PSTYesnjdUSGS1670 Unspecified NONE
7382015-08-12 12:08PSTYesnjdUSGS1900 Unspecified NONE
7372015-04-23 13:45PSTYesND/ADUSGS2960 UnspecifiedUnspecifedNONE
7362015-04-23 13:37PSTYesND/ADUSGS3020 UnspecifiedUnspecifedNONE
7352015-04-23 13:30PSTYesND/ADUSGS2920 UnspecifiedUnspecifedNONE
7342015-04-23 13:22PSTYesND/ADUSGS2920 UnspecifiedUnspecifedNONE
7332015-04-23 13:06PSTYesND/ADUSGS2830 UnspecifiedUnspecifedNONE
7322015-04-23 12:58PSTYesND/ADUSGS2750 UnspecifiedUnspecifedNONE
7312015-04-23 12:49PSTYesND/ADUSGS2640 UnspecifiedUnspecifedNONE
7302015-04-23 12:40PSTYesND/ADUSGS2600 UnspecifiedUnspecifedNONE
7292015-04-23 12:31PSTYesND/ADUSGS2760 UnspecifiedUnspecifedNONE
7282015-04-23 12:20PSTYesND/ADUSGS2650 UnspecifiedUnspecifedNONE
7272015-04-23 12:10PSTYesND/ADUSGS2890 UnspecifiedUnspecifedNONE
7262015-04-23 12:00PSTYesND/ADUSGS3020 UnspecifiedUnspecifedNONE
7252015-04-23 11:50PSTYesND/ADUSGS3070 UnspecifiedUnspecifedNONE
7242015-04-23 11:40PSTYesND/ADUSGS2990 UnspecifiedUnspecifedNONE
7232015-04-23 11:30PSTYesND/ADUSGS2920 UnspecifiedUnspecifedNONE
7222015-04-23 11:23PSTYesND/ADUSGS2810 UnspecifiedUnspecifedNONE
7212015-04-23 11:15PSTYesND/ADUSGS2750 UnspecifiedUnspecifedNONE
7202015-04-23 11:08PSTYesND/ADUSGS2670 UnspecifiedUnspecifedNONE
7192015-04-23 10:59PSTYesND/ADUSGS2580 UnspecifiedUnspecifedNONE
7182015-04-23 10:52PSTYesND/ADUSGS2350 UnspecifiedUnspecifedNONE
7172015-04-23 10:43PSTYesND/ADUSGS2240 UnspecifiedUnspecifedNONE
7162015-04-23 10:36PSTYesND/ADUSGS2020 UnspecifiedUnspecifedNONE
7152015-04-23 10:29PSTYesND/ADUSGS1490 UnspecifiedUnspecifedNONE
7142015-04-23 10:20PSTYesND/ADUSGS1130 UnspecifiedUnspecifedNONE
7132015-04-23 10:11PSTYesND/ADUSGS665 UnspecifiedUnspecifedNONE
7122015-04-23 10:04PSTYesND/ADUSGS194 UnspecifiedUnspecifedNONE
7112015-04-23 09:52PSTYesND/ADUSGS-548 UnspecifiedUnspecifedNONE
7102015-04-23 09:40PSTYesND/ADUSGS-1390 UnspecifiedUnspecifedNONE
7092015-04-13 13:58PSTYesAD/NDUSGS-13813.24 UnspecifiedUnspecifedNONE
7082015-04-13 13:54PSTYesAD/NDUSGS-66013.28 UnspecifiedUnspecifedNONE
7072015-04-13 13:44PSTYesAD/NDUSGS-135013.33 UnspecifiedUnspecifedNONE
7062015-04-13 13:34PSTYesAD/NDUSGS-198013.36 UnspecifiedUnspecifedNONE
7052015-02-18 17:16PSTYesAD/DAUSGS-496013.73 UnspecifiedUnspecifedNONE
7042015-02-18 17:06PSTYesAD/DAUSGS-480013.67 UnspecifiedUnspecifedNONE
7032015-02-18 16:56PSTYesAD/DAUSGS-500013.59 UnspecifiedUnspecifedNONE
7022015-02-18 16:48PSTYesAD/DAUSGS-549013.50 UnspecifiedUnspecifedNONE
7012015-02-18 16:39PSTYesAD/DAUSGS-581013.42 UnspecifiedUnspecifedNONE
7002015-02-18 16:29PSTYesAD/DAUSGS-587013.33 UnspecifiedUnspecifedNONE
6992015-02-18 16:20PSTYesAD/DAUSGS-529013.24 UnspecifiedUnspecifedNONE
6982015-02-18 16:12PSTYesAD/DAUSGS-599013.14 UnspecifiedUnspecifedNONE
6972015-02-18 16:02PSTYesAD/DAUSGS-651013.04 UnspecifiedUnspecifedNONE
6962015-02-18 15:54PSTYesAD/DAUSGS-686012.90 UnspecifiedUnspecifedNONE
6952014-09-08 13:59PSTYesYESUSGS-4100 Unspecified NONE
6942014-09-08 13:52PSTYesYESUSGS-4100 Unspecified NONE
6932014-09-08 13:43PSTYesYESUSGS-4160 Unspecified NONE
6922014-09-08 13:34PSTYesYESUSGS-3710 Unspecified NONE
6912014-09-08 13:22PSTYesYESUSGS-3200 Unspecified NONE
6902014-09-08 13:15PSTYesYESUSGS-2350 Unspecified NONE
6892014-09-08 12:53PSTYesYESUSGS-93.1 Unspecified NONE
6882014-09-08 12:41PSTYesYESUSGS734 Unspecified NONE
6872013-07-17 10:03PSTYesYESUSGS-3670 Unspecified NONE
6862013-07-17 09:54PSTYesYESUSGS-3680 Unspecified NONE
6852013-07-17 09:44PSTYesYESUSGS-3570 Unspecified NONE
6842013-07-17 09:35PSTYesYESUSGS-2910 Unspecified NONE
6832013-07-17 09:26PSTYesYESUSGS-2680 Unspecified NONE
6822013-07-17 09:18PSTYesYESUSGS-2440 Unspecified NONE
6812013-07-17 09:10PSTYesYESUSGS-2370 Unspecified NONE
6802013-07-17 09:02PSTYesYESUSGS-2050 Unspecified NONE
6792013-07-17 08:55PSTYesYESUSGS-1740 Unspecified NONE
6782013-07-17 08:47PSTYesYESUSGS-1790 Unspecified NONE
6772013-07-17 08:38PSTYesYESUSGS-1270 Unspecified NONE
6762013-07-17 08:25PSTYesYESUSGS-1080 Unspecified NONE
6752013-07-17 08:08PSTYesYESUSGS-935 Unspecified NONE
6742013-07-17 07:52PSTYesYESUSGS-1390 Unspecified NONE
6732013-07-17 07:42PSTYesYESUSGS-1970 Unspecified NONE
6722013-07-17 07:27PSTYesYESUSGS-1840 Unspecified NONE
6712012-01-12 05:21PSTYesYESUSGS-3790 Unspecified NONE
6702012-01-12 04:55PSTYesYESUSGS-3540 Unspecified NONE
6692012-01-12 04:26PSTYesYESUSGS-2970 Unspecified NONE
6682012-01-12 04:16PSTYesYESUSGS-2480 Unspecified NONE
6672012-01-12 04:06PSTYesYESUSGS-1790 Unspecified NONE
6662012-01-12 03:49PSTYesYESUSGS-454 Unspecified NONE
6652012-01-12 03:34PSTYesYESUSGS698 Unspecified NONE
6642012-01-12 02:57PSTYesYESUSGS2630 Unspecified NONE
6632012-01-12 02:45PSTYesYESUSGS2390 Unspecified NONE
6622012-01-12 02:35PSTYesYESUSGS2410 Unspecified NONE
6612012-01-12 02:03PSTYesYESUSGS1700 Unspecified NONE
6602012-01-12 01:53PSTYesYESUSGS1700 Unspecified NONE
6592012-01-12 01:44PSTYesYESUSGS1630 Unspecified NONE
6582012-01-12 01:36PSTYesYESUSGS1740 Unspecified NONE
6572012-01-12 01:26PSTYesYESUSGS1550 Unspecified NONE
6562012-01-12 01:15PSTYesYESUSGS1400 Unspecified NONE
6552012-01-12 01:06PSTYesYESUSGS1260 Unspecified NONE
6542012-01-12 00:52PSTYesYESUSGS1360 Unspecified NONE
6532012-01-12 00:25PSTYesYESUSGS2500 Unspecified NONE
6522012-01-11 23:48PSTYesYESUSGS3540 Unspecified NONE
6512012-01-11 23:39PSTYesYESUSGS3490 Unspecified NONE
6502012-01-11 23:25PSTYesYESUSGS3600 Unspecified NONE
6492012-01-11 23:15PSTYesYESUSGS3600 Unspecified NONE
6482012-01-11 22:31PSTYesYESUSGS3540 Unspecified NONE
6472012-01-11 22:22PSTYesYESUSGS3300 Unspecified NONE
6462012-01-11 22:10PSTYesYESUSGS3630 Unspecified NONE
6452012-01-11 21:54PSTYesYESUSGS2640 Unspecified NONE
6442012-01-11 21:47PSTYesYESUSGS2530 Unspecified NONE
6432012-01-11 21:28PSTYesYESUSGS1910 Unspecified NONE
6422012-01-11 21:20PSTYesYESUSGS1560 Unspecified NONE
6412012-01-11 21:11PSTYesYESUSGS1380 Unspecified NONE
6402012-01-11 21:04PSTYesYESUSGS978 Unspecified NONE
6392012-01-11 20:48PSTYesYESUSGS501 Unspecified NONE
6382012-01-11 20:38PSTYesYESUSGS-168 Unspecified NONE
6372012-01-11 20:24PSTYesYESUSGS-552 Unspecified NONE
6362012-01-11 20:16PSTYesYESUSGS-900 Unspecified NONE
6352012-01-11 19:37PSTYesYESUSGS-3260 Unspecified NONE
6342012-01-11 19:29PSTYesYESUSGS-3440 Unspecified NONE
6332012-01-11 18:46PSTYesYESUSGS-4590 Unspecified NONE
6322012-01-11 18:36PSTYesYESUSGS-4470 Unspecified NONE
6312012-01-11 18:26PSTYesYESUSGS-5000 Unspecified NONE
6302012-01-11 18:16PSTYesYESUSGS-4650 Unspecified NONE
6292012-01-11 18:04PSTYesYESUSGS-5270 Unspecified NONE
6282012-01-11 17:45PSTYesYESUSGS-5270 Unspecified NONE
6272012-01-11 17:22PSTYesYESUSGS-5320 Unspecified NONE
6262012-01-11 17:09PSTYesYESUSGS-5220 Unspecified NONE
6252012-01-11 16:59PSTYesYESUSGS-5450 Unspecified NONE
6242012-01-11 16:25PSTYesYESUSGS-4700 Unspecified NONE
6232012-01-11 16:14PSTYesYESUSGS-4920 Unspecified NONE
6222011-03-10 19:41PSTYesYESUSGS-2810 Unspecified NONE
6212011-03-10 19:34PSTYesYESUSGS-2770 Unspecified NONE
6202011-03-10 19:29PSTYesYESUSGS-2790 Unspecified NONE
6192011-03-10 19:24PSTYesYESUSGS-2820 Unspecified NONE
6182011-03-10 19:18PSTYesYESUSGS-2830 Unspecified NONE
6172011-03-10 19:13PSTYesYESUSGS-2760 Unspecified NONE
6162011-03-10 19:08PSTYesYESUSGS-2620 Unspecified NONE
6152011-03-10 19:02PSTYesYESUSGS-2570 Unspecified NONE
6142011-03-10 18:58PSTYesYESUSGS-2350 Unspecified NONE
6132011-03-10 18:42PSTYesYESUSGS-2020 Unspecified NONE
6122011-03-10 18:36PSTYesYESUSGS-1880 Unspecified NONE
6112011-03-10 18:29PSTYesYESUSGS-1430 Unspecified NONE
6102011-03-10 18:13PSTYesYESUSGS-574 Unspecified NONE
6092011-03-10 18:05PSTYesYESUSGS-137 Unspecified NONE
6082011-03-10 17:57PSTYesYESUSGS763 Unspecified NONE
6072011-03-10 17:48PSTYesYESUSGS929 Unspecified NONE
6062011-03-10 17:41PSTYesYESUSGS1420 Unspecified NONE
6052011-03-10 17:35PSTYesYESUSGS1530 Unspecified NONE
6042011-03-10 16:39PSTYesYESUSGS2450 Unspecified NONE
6032011-03-10 16:31PSTYesYESUSGS2530 Unspecified NONE
6022011-03-10 16:25PSTYesYESUSGS2640 Unspecified NONE
6012011-03-10 16:18PSTYesYESUSGS2630 Unspecified NONE
6002011-03-10 16:12PSTYesYESUSGS2740 Unspecified NONE
5992011-03-10 16:06PSTYesYESUSGS2700 Unspecified NONE
5982011-03-10 16:01PSTYesYESUSGS2830 Unspecified NONE
5972011-03-10 15:56PSTYesYESUSGS2890 Unspecified NONE
5962011-03-10 15:48PSTYesYESUSGS2800 Unspecified NONE
5952011-03-10 15:42PSTYesYESUSGS2680 Unspecified NONE
5942011-03-10 15:37PSTYesYESUSGS2770 Unspecified NONE
5932011-03-10 15:21PSTYesYESUSGS2750 Unspecified NONE
5922011-03-10 15:16PSTYesYESUSGS2740 Unspecified NONE
5912011-03-10 15:07PSTYesYESUSGS2780 Unspecified NONE
5902011-03-10 14:45PSTYesYESUSGS2810 Unspecified NONE
5892011-03-10 14:40PSTYesYESUSGS2700 Unspecified NONE
5882011-03-10 14:34PSTYesYESUSGS2690 Unspecified NONE
5872011-03-10 14:26PSTYesYESUSGS2560 Unspecified NONE
5862011-03-10 14:20PSTYesYESUSGS2290 Unspecified NONE
5852011-03-10 14:13PSTYesYESUSGS2210 Unspecified NONE
5842011-03-10 14:04PSTYesYESUSGS2270 Unspecified NONE
5832011-03-10 13:56PSTYesYESUSGS2010 Unspecified NONE
5822011-03-10 13:50PSTYesYESUSGS1980 Unspecified NONE
5812011-03-10 13:43PSTYesYESUSGS1820 Unspecified NONE
5802011-03-10 13:36PSTYesYESUSGS1770 Unspecified NONE
5792011-03-10 13:27PSTYesYESUSGS1750 Unspecified NONE
5782011-03-10 12:49PSTYesYESUSGS1810 Unspecified NONE
5772011-03-10 12:41PSTYesYESUSGS1840 Unspecified NONE
5762011-03-10 12:34PSTYesYESUSGS1850 Unspecified NONE
5752011-03-10 12:24PSTYesYESUSGS1940 Unspecified NONE
5742011-03-10 12:10PSTYesYESUSGS1730 Unspecified NONE
5732011-03-10 11:55PSTYesYESUSGS1600 Unspecified NONE
5722011-03-10 11:49PSTYesYESUSGS1420 Unspecified NONE
5712011-03-10 11:43PSTYesYESUSGS1220 Unspecified NONE
5702011-03-10 11:35PSTYesYESUSGS1270 Unspecified NONE
5692011-03-10 11:28PSTYesYESUSGS1160 Unspecified NONE
5682011-03-10 11:21PSTYesYESUSGS976 Unspecified NONE
5672011-03-10 11:15PSTYesYESUSGS1320 Unspecified NONE
5662011-03-10 11:09PSTYesYESUSGS1770 Unspecified NONE
5652011-03-10 10:46PSTYesYESUSGS1250 Unspecified NONE
5642011-03-10 10:41PSTYesYESUSGS745 Unspecified NONE
5632011-03-10 10:33PSTYesYESUSGS391 Unspecified NONE
5622011-03-10 10:26PSTYesYESUSGS-242 Unspecified NONE
5612011-03-10 10:20PSTYesYESUSGS-607 Unspecified NONE
5602011-03-10 10:13PSTYesYESUSGS-1290 Unspecified NONE
5592011-03-10 10:06PSTYesYESUSGS-1640 Unspecified NONE
5582011-03-10 10:00PSTYesYESUSGS-2090 Unspecified NONE
5572011-03-10 09:54PSTYesYESUSGS-2170 Unspecified NONE
5562011-03-10 09:46PSTYesYESUSGS-2950 Unspecified NONE
5552011-03-10 09:40PSTYesYESUSGS-3790 Unspecified NONE
5542011-03-10 09:34PSTYesYESUSGS-4100 Unspecified NONE
5532011-03-10 09:25PSTYesYESUSGS-4740 Unspecified NONE
5522011-03-10 09:17PSTYesYESUSGS-5120 Unspecified NONE
5512011-03-10 09:09PSTYesYESUSGS-5070 Unspecified NONE
5502011-03-10 08:49PSTYesYESUSGS-5460 Unspecified NONE
5492011-03-10 08:20PSTYesYESUSGS-5930 Unspecified NONE
5482011-03-10 08:14PSTYesYESUSGS-6080 Unspecified NONE
5472011-03-10 08:08PSTYesYESUSGS-6220 Unspecified NONE
5462011-03-10 08:00PSTYesYESUSGS-6070 Unspecified NONE
5452011-03-10 07:55PSTYesYESUSGS-5840 Unspecified NONE
5442011-03-10 07:47PSTYesYESUSGS-6180 Unspecified NONE
5432011-03-10 07:32PSTYesYESUSGS-6190 Unspecified NONE
5422011-03-10 07:20PSTYesYESUSGS-5970 Unspecified NONE
5412011-03-08 13:29PSTYesYESUSGS1300 Unspecified NONE
5402011-03-08 13:24PSTYesYESUSGS1410 Unspecified NONE
5392011-03-08 13:18PSTYesYESUSGS1290 Unspecified NONE
5382011-03-08 13:12PSTYesYESUSGS1380 Unspecified NONE
5372011-03-08 13:05PSTYesYESUSGS1380 Unspecified NONE
5362011-03-08 13:00PSTYesYESUSGS1360 Unspecified NONE
5352010-03-11 13:09PSTYesYESUSGS-6310 Unspecified NONE
5342010-03-11 13:05PSTYesYESUSGS-6520 Unspecified NONE
5332010-03-11 13:00PSTYesYESUSGS-6410 Unspecified NONE
5322010-03-11 12:56PSTYesYESUSGS-6280 Unspecified NONE
5312010-03-11 12:51PSTYesYESUSGS-6130 Unspecified NONE
5302010-03-11 12:48PSTYesYESUSGS-5690 Unspecified NONE
5292009-05-13 17:56PSTYesYESUSGS-2450 Unspecified NONE
5282009-05-13 17:52PSTYesYESUSGS-2330 Unspecified NONE
5272009-05-13 17:49PSTYesYESUSGS-1910 Unspecified NONE
5262009-05-13 17:45PSTYesYESUSGS-2050 Unspecified NONE
5252009-05-13 17:42PSTYesYESUSGS-1480 Unspecified NONE
5242009-05-13 17:38PSTYesYESUSGS-1240 Unspecified NONE
5232009-05-13 17:35PSTYesYESUSGS-1160 Unspecified NONE
5222009-05-13 17:32PSTYesYESUSGS-811 Unspecified NONE
5212009-05-13 17:28PSTYesYESUSGS-488 Unspecified NONE
5202009-05-13 17:24PSTYesYESUSGS-215 Unspecified NONE
5192009-05-13 17:21PSTYesYESUSGS-53.1 Unspecified NONE
5182009-05-13 17:18PSTYesYESUSGS272 Unspecified NONE
5172009-05-13 17:05PSTYesYESUSGS1410 Unspecified NONE
5162009-05-13 17:00PSTYesYESUSGS1470 Unspecified NONE
5152009-05-13 16:40PSTYesYESUSGS2340 Unspecified NONE
5142009-05-13 16:36PSTYesYESUSGS2330 Unspecified NONE
5132009-05-13 16:31PSTYesYESUSGS2380 Unspecified NONE
5122009-05-13 16:26PSTYesYESUSGS2800 Unspecified NONE
5112009-05-13 16:22PSTYesYESUSGS2740 Unspecified NONE
5102009-05-13 16:18PSTYesYESUSGS2650 Unspecified NONE
5092009-05-13 15:59PSTYesYESUSGS3300 Unspecified NONE
5082009-05-13 15:54PSTYesYESUSGS3130 Unspecified NONE
5072009-05-13 15:51PSTYesYESUSGS3180 Unspecified NONE
5062009-05-13 15:46PSTYesYESUSGS3280 Unspecified NONE
5052009-05-13 15:16PSTYesYESUSGS3780 Unspecified NONE
5042009-05-13 15:11PSTYesYESUSGS3740 Unspecified NONE
5032009-05-13 14:39PSTYesYESUSGS3710 Unspecified NONE
5022009-05-13 14:33PSTYesYESUSGS3720 Unspecified NONE
5012009-05-13 14:29PSTYesYESUSGS3740 Unspecified NONE
5002009-05-13 14:23PSTYesYESUSGS3770 Unspecified NONE
4992009-05-13 14:18PSTYesYESUSGS3780 Unspecified NONE
4982009-05-13 14:13PSTYesYESUSGS3560 Unspecified NONE
4972009-05-13 13:52PSTYesYESUSGS3460 Unspecified NONE
4962009-05-13 13:47PSTYesYESUSGS3330 Unspecified NONE
4952009-05-13 13:44PSTYesYESUSGS3320 Unspecified NONE
4942009-05-13 13:40PSTYesYESUSGS3470 Unspecified NONE
4932009-05-13 13:36PSTYesYESUSGS3360 Unspecified NONE
4922009-05-13 13:31PSTYesYESUSGS3380 Unspecified NONE
4912009-05-13 12:52PSTYesYESUSGS3350 Unspecified NONE
4902009-05-13 12:47PSTYesYESUSGS3380 Unspecified NONE
4892009-05-13 12:42PSTYesYESUSGS3320 Unspecified NONE
4882009-05-13 12:37PSTYesYESUSGS3320 Unspecified NONE
4872009-05-13 12:33PSTYesYESUSGS3170 Unspecified NONE
4862009-05-13 12:28PSTYesYESUSGS3400 Unspecified NONE
4852009-05-13 11:45PSTYesYESUSGS3530 Unspecified NONE
4842009-05-13 11:39PSTYesYESUSGS3550 Unspecified NONE
4832009-05-13 11:36PSTYesYESUSGS3510 Unspecified NONE
4822009-05-13 11:28PSTYesYESUSGS3650 Unspecified NONE
4812009-05-13 11:24PSTYesYESUSGS3560 Unspecified NONE
4802009-05-13 11:20PSTYesYESUSGS3660 Unspecified NONE
4792009-05-13 10:47PSTYesYESUSGS3510 Unspecified NONE
4782009-05-13 10:42PSTYesYESUSGS3560 Unspecified NONE
4772009-05-13 10:38PSTYesYESUSGS3470 Unspecified NONE
4762009-05-13 10:33PSTYesYESUSGS3410 Unspecified NONE
4752009-05-13 10:28PSTYesYESUSGS3400 Unspecified NONE
4742009-05-13 10:23PSTYesYESUSGS3340 Unspecified NONE
4732009-05-13 10:19PSTYesYESUSGS3000 Unspecified NONE
4722009-05-13 10:13PSTYesYESUSGS3050 Unspecified NONE
4712009-05-13 09:49PSTYesYESUSGS2660 Unspecified NONE
4702009-05-13 09:44PSTYesYESUSGS2610 Unspecified NONE
4692009-05-13 09:40PSTYesYESUSGS2630 Unspecified NONE
4682009-05-13 09:34PSTYesYESUSGS2430 Unspecified NONE
4672009-05-13 09:29PSTYesYESUSGS2270 Unspecified NONE
4662009-05-13 09:23PSTYesYESUSGS2150 Unspecified NONE
4652009-05-13 09:18PSTYesYESUSGS2160 Unspecified NONE
4642009-05-13 09:13PSTYesYESUSGS1950 Unspecified NONE
4632009-05-13 08:50PSTYesYESUSGS710 Unspecified NONE
4622009-05-13 08:47PSTYesYESUSGS402 Unspecified NONE
4612009-05-13 08:40PSTYesYESUSGS81.4 Unspecified NONE
4602009-05-13 08:36PSTYesYESUSGS-192 Unspecified NONE
4592009-05-13 08:30PSTYesYESUSGS-828 Unspecified NONE
4582009-05-13 08:26PSTYesYESUSGS-1400 Unspecified NONE
4572009-05-13 08:20PSTYesYESUSGS-1820 Unspecified NONE
4562009-05-13 08:14PSTYesYESUSGS-2360 Unspecified NONE
4552009-05-13 08:08PSTYesYESUSGS-2490 Unspecified NONE
4542009-05-13 08:02PSTYesYESUSGS-2850 Unspecified NONE
4532009-05-13 07:55PSTYesYESUSGS-2880 Unspecified NONE
4522009-05-13 07:52PSTYesYESUSGS-3000 Unspecified NONE
4512009-05-13 07:46PSTYesYESUSGS-3390 Unspecified NONE
4502009-05-13 07:42PSTYesYESUSGS-3540 Unspecified NONE
4492009-05-13 07:35PSTYesYESUSGS-3640 Unspecified NONE
4482009-05-13 07:29PSTYesYESUSGS-3890 Unspecified NONE
4472009-05-13 07:21PSTYesYESUSGS-4070 Unspecified NONE
4462009-05-13 07:01PSTYesYESUSGS-4490 Unspecified NONE
4452009-05-13 06:53PSTYesYESUSGS-4380 Unspecified NONE
4442009-05-13 06:47PSTYesYESUSGS-4380 Unspecified NONE
4432009-05-13 06:40PSTYesYESUSGS-4550 Unspecified NONE
4422009-05-13 06:32PSTYesYESUSGS-4570 Unspecified NONE
4412009-05-13 06:24PSTYesYESUSGS-4560 Unspecified NONE
4402009-05-13 06:19PSTYesYESUSGS-4750 Unspecified NONE
4392009-05-13 06:14PSTYesYESUSGS-4710 Unspecified NONE
4382009-05-13 06:04PSTYesYESUSGS-4790 Unspecified NONE
4372009-05-13 05:59PSTYesYESUSGS-4590 Unspecified NONE
4362009-01-13 12:15PSTYesBJS?MAYUSGS19510.96 UnspecifiedUnspecifedNONE
4352009-01-13 12:08PSTYesBJS?MAYUSGS12211.01 UnspecifiedUnspecifedNONE
4342009-01-13 12:02PSTYesBJS?MAYUSGS-52.011.06 UnspecifiedUnspecifedNONE
4332009-01-13 11:55PSTYesBJS?MAYUSGS-13911.11 UnspecifiedUnspecifedNONE
4322009-01-13 11:48PSTYesBJS?MAYUSGS-34411.16 UnspecifiedUnspecifedNONE
4312009-01-13 11:40PSTYesBJS?MAYUSGS-55511.22 UnspecifiedUnspecifedNONE
4302009-01-13 11:33PSTYesBJS?MAYUSGS-56911.27 UnspecifiedUnspecifedNONE
4292009-01-13 11:26PSTYesBJS?MAYUSGS-73611.31 UnspecifiedUnspecifedNONE
4282008-08-19 09:20PSTYesBSJ/PKUSGS221012.98 Unspecified NONE
4272008-08-19 09:15PSTYesBSJ/PKUSGS191013.02 Unspecified NONE
4262008-08-19 09:09PSTYesBSJ/PKUSGS182013.07 Unspecified NONE
4252008-08-19 09:04PSTYesBSJ/PKUSGS176013.13 Unspecified NONE
4242008-08-19 08:58PSTYesBSJ/PKUSGS164013.18 Unspecified NONE
4232008-08-19 08:53PSTYesBSJ/PKUSGS142013.22 Unspecified NONE
4222008-08-19 08:49PSTYesBSJ/PKUSGS124013.26 Unspecified NONE
4212008-08-19 08:45PSTYesBSJ/PKUSGS101013.30 Unspecified NONE
4202008-08-19 08:41PSTYesBSJ/PKUSGS80913.34 Unspecified NONE
4192008-08-19 08:35PSTYesBSJ/PKUSGS51213.39 Unspecified NONE
4182008-05-15 14:24PSTYesBJS/CRBUSGS-399012.07 Unspecified NONE
4172008-05-15 14:19PSTYesBJS/CRBUSGS-395012.04 Unspecified NONE
4162008-05-15 14:13PSTYesBJS/CRBUSGS-395012.00 Unspecified NONE
4152008-05-15 14:08PSTYesBJS/CRBUSGS-387011.96 Unspecified NONE
4142008-05-15 14:02PSTYesBJS/CRBUSGS-387011.92 Unspecified NONE
4132008-05-15 13:56PSTYesBJS/CRBUSGS-393011.87 Unspecified NONE
4122008-05-15 13:51PSTYesBJS/CRBUSGS-409011.83 Unspecified NONE
4112008-05-15 13:45PSTYesBJS/CRBUSGS-407011.78 Unspecified NONE
4102008-05-15 13:40PSTYesBJS/CRBUSGS-395011.74 Unspecified NONE
4092008-05-15 13:34PSTYesBJS/CRBUSGS-394011.71 Unspecified NONE
4082008-05-15 13:29PSTYesBJS/CRBUSGS-380011.67 Unspecified NONE
4072008-05-15 13:24PSTYesBJS/CRBUSGS-383011.64 Unspecified NONE
4062008-05-15 13:19PSTYesBJS/CRBUSGS-371011.61 Unspecified NONE
4052008-05-15 13:15PSTYesBJS/CRBUSGS-371011.58 Unspecified NONE
4042008-05-15 13:10PSTYesBJS/CRBUSGS-358011.54 Unspecified NONE
4032008-05-15 13:04PSTYesBJS/CRBUSGS-356011.50 Unspecified NONE
4022008-05-15 12:59PSTYesBJS/CRBUSGS-341011.46 Unspecified NONE
4012008-05-15 12:54PSTYesBJS/CRBUSGS-338011.42 Unspecified NONE
4002008-05-15 12:33PSTYesBJS/CRBUSGS-323011.28 Unspecified NONE
3992008-05-15 12:28PSTYesBJS/CRBUSGS-316011.24 Unspecified NONE
3982008-05-15 12:23PSTYesBJS/CRBUSGS-300011.21 Unspecified NONE
3972008-05-15 12:18PSTYesBJS/CRBUSGS-291011.18 Unspecified NONE
3962008-05-15 12:14PSTYesBJS/CRBUSGS-280011.15 Unspecified NONE
3952008-05-15 12:09PSTYesBJS/CRBUSGS-274011.12 Unspecified NONE
3942008-05-15 12:02PSTYesBJS/CRBUSGS-260011.07 Unspecified NONE
3932008-05-15 11:58PSTYesBJS/CRBUSGS-243011.04 Unspecified NONE
3922008-05-15 11:53PSTYesBJS/CRBUSGS-211011.01 Unspecified NONE
3912008-05-15 11:49PSTYesBJS/CRBUSGS-195010.98 Unspecified NONE
3902008-05-15 11:44PSTYesBJS/CRBUSGS-168010.94 Unspecified NONE
3892008-05-15 11:39PSTYesBJS/CRBUSGS-123010.89 Unspecified NONE
3882008-05-15 11:34PSTYesBJS/CRBUSGS-99210.84 Unspecified NONE
3872008-05-15 11:25PSTYesBJS/CRBUSGS-24110.76 Unspecified NONE
3862008-05-15 11:21PSTYesBJS/CRBUSGS10510.72 Unspecified NONE
3852008-05-15 11:15PSTYesBJS/CRBUSGS45710.67 Unspecified NONE
3842008-05-15 11:11PSTYesBJS/CRBUSGS76910.65 Unspecified NONE
3832008-05-15 11:06PSTYesBJS/CRBUSGS113010.62 Unspecified NONE
3822008-05-15 11:00PSTYesBJS/CRBUSGS142010.59 Unspecified NONE
3812008-05-15 10:56PSTYesBJS/CRBUSGS174010.58 Unspecified NONE
3802008-05-15 10:51PSTYesBJS/CRBUSGS188010.57 Unspecified NONE
3792008-05-15 10:47PSTYesBJS/CRBUSGS200010.56 Unspecified NONE
3782008-05-15 10:42PSTYesBJS/CRBUSGS215010.57 Unspecified NONE
3772008-05-15 10:37PSTYesBJS/CRBUSGS232010.58 Unspecified NONE
3762008-05-15 10:12PSTYesBJS/CRBUSGS276010.66 Unspecified NONE
3752008-05-15 10:07PSTYesBJS/CRBUSGS282010.69 Unspecified NONE
3742008-05-15 10:02PSTYesBJS/CRBUSGS288010.71 Unspecified NONE
3732008-05-15 09:30PSTYesBJS/CRBUSGS311010.91 Unspecified NONE
3722008-05-15 09:25PSTYesBJS/CRBUSGS308010.94 Unspecified NONE
3712008-05-15 09:21PSTYesBJS/CRBUSGS313010.97 Unspecified NONE
3702008-05-15 09:16PSTYesBJS/CRBUSGS322010.99 Unspecified NONE
3692008-05-15 08:51PSTYesBJS/CRBUSGS315011.16 Unspecified NONE
3682008-05-15 08:46PSTYesBJS/CRBUSGS323011.19 Unspecified NONE
3672008-05-15 08:40PSTYesBJS/CRBUSGS324011.23 Unspecified NONE
3662008-05-15 08:35PSTYesBJS/CRBUSGS335011.27 Unspecified NONE
3652008-05-15 08:30PSTYesBJS/CRBUSGS332011.31 Unspecified NONE
3642008-05-15 08:25PSTYesBJS/CRBUSGS330011.35 Unspecified NONE
3632008-05-15 08:08PSTYesBJS/CRBUSGS345011.48 Unspecified NONE
3622008-05-15 08:02PSTYesBJS/CRBUSGS346011.53 Unspecified NONE
3612008-05-15 07:56PSTYesBJS/CRBUSGS342011.57 Unspecified NONE
3602008-05-15 07:51PSTYesBJS/CRBUSGS352011.61 Unspecified NONE
3592008-05-15 07:46PSTYesBJS/CRBUSGS352011.65 Unspecified NONE
3582008-05-15 07:40PSTYesBJS/CRBUSGS349011.69 Unspecified NONE
3572008-05-15 07:34PSTYesBJS/CRBUSGS349011.74 Unspecified NONE
3562008-05-15 07:29PSTYesBJS/CRBUSGS358011.78 Unspecified NONE
3552008-05-15 07:24PSTYesBJS/CRBUSGS357011.83 Unspecified NONE
3542008-05-15 07:18PSTYesBJS/CRBUSGS358011.87 Unspecified NONE
3532008-05-15 07:13PSTYesBJS/CRBUSGS360011.91 Unspecified NONE
3522008-05-15 07:08PSTYesBJS/CRBUSGS368011.95 Unspecified NONE
3512008-03-07 02:57PSTYesBJS/CRBUSGS-511010.62 Unspecified NONE
3502008-03-07 02:52PSTYesBJS/CRBUSGS-500010.60 Unspecified NONE
3492008-03-07 02:46PSTYesBJS/CRBUSGS-505010.57 Unspecified NONE
3482008-03-07 02:40PSTYesBJS/CRBUSGS-483010.54 Unspecified NONE
3472008-03-07 02:35PSTYesBJS/CRBUSGS-470010.52 Unspecified NONE
3462008-03-07 02:27PSTYesBJS/CRBUSGS-434010.49 Unspecified NONE
3452008-03-07 02:21PSTYesBJS/CRBUSGS-397010.48 Unspecified NONE
3442008-03-07 02:16PSTYesBJS/CRBUSGS-368010.46 Unspecified NONE
3432008-03-07 02:10PSTYesBJS/CRBUSGS-330010.43 Unspecified NONE
3422008-03-07 02:04PSTYesBJS/CRBUSGS-295010.39 Unspecified NONE
3412008-03-07 01:58PSTYesBJS/CRBUSGS-252010.34 Unspecified NONE
3402008-03-07 01:53PSTYesBJS/CRBUSGS-212010.29 Unspecified NONE
3392008-03-07 01:46PSTYesBJS/CRBUSGS-167010.21 Unspecified NONE
3382008-03-07 01:40PSTYesBJS/CRBUSGS-121010.15 Unspecified NONE
3372008-03-07 01:34PSTYesBJS/CRBUSGS-62310.08 Unspecified NONE
3362008-03-07 01:28PSTYesBJS/CRBUSGS2.0010.03 Unspecified NONE
3352008-03-07 01:11PSTYesBJS/CRBUSGS9539.95 Unspecified NONE
3342008-03-07 01:04PSTYesBJS/CRBUSGS10409.94 Unspecified NONE
3332008-03-07 00:59PSTYesBJS/CRBUSGS10609.93 Unspecified NONE
3322008-03-07 00:52PSTYesBJS/CRBUSGS10209.96 Unspecified NONE
3312008-03-07 00:46PSTYesBJS/CRBUSGS11909.98 Unspecified NONE
3302008-03-07 00:40PSTYesBJS/CRBUSGS146010.04 Unspecified NONE
3292008-03-07 00:34PSTYesBJS/CRBUSGS167010.10 Unspecified NONE
3282008-03-07 00:29PSTYesBJS/CRBUSGS207010.16 Unspecified NONE
3272008-03-07 00:23PSTYesBJS/CRBUSGS234010.21 Unspecified NONE
3262008-03-07 00:15PSTYesBJS/CRBUSGS248010.28 Unspecified NONE
3252008-03-06 23:50PSTYesBJS/CRBUSGS257010.45 Unspecified NONE
3242008-03-06 23:21PSTYesBJS/CRBUSGS270010.68 Unspecified NONE
3232008-03-06 23:14PSTYesBJS/CRBUSGS276010.73 Unspecified NONE
3222008-03-06 23:08PSTYesBJS/CRBUSGS272010.78 Unspecified NONE
3212008-03-06 23:01PSTYesBJS/CRBUSGS279010.83 Unspecified NONE
3202008-03-06 22:54PSTYesBJS/CRBUSGS277010.89 Unspecified NONE
3192008-03-06 22:48PSTYesBJS/CRBUSGS284010.94 Unspecified NONE
3182008-03-06 22:43PSTYesBJS/CRBUSGS281010.97 Unspecified NONE
3172008-03-06 22:38PSTYesBJS/CRBUSGS273011.01 Unspecified NONE
3162008-03-06 21:53PSTYesBJS/CRBUSGS252011.32 Unspecified NONE
3152008-03-06 21:48PSTYesBJS/CRBUSGS240011.35 Unspecified NONE
3142008-03-06 21:43PSTYesBJS/CRBUSGS233011.38 Unspecified NONE
3132008-03-06 21:37PSTYesBJS/CRBUSGS241011.43 Unspecified NONE
3122008-03-06 21:32PSTYesBJS/CRBUSGS225011.48 Unspecified NONE
3112008-03-06 21:26PSTYesBJS/CRBUSGS237011.53 Unspecified NONE
3102008-03-06 21:19PSTYesBJS/CRBUSGS234011.60 Unspecified NONE
3092008-03-06 21:13PSTYesBJS/CRBUSGS244011.65 Unspecified NONE
3082008-03-06 21:06PSTYesBJS/CRBUSGS240011.73 Unspecified NONE
3072008-03-06 20:59PSTYesBJS/CRBUSGS289011.81 Unspecified NONE
3062008-03-06 20:40PSTYesBJS/CRBUSGS329012.01 Unspecified NONE
3052008-03-06 20:34PSTYesBJS/CRBUSGS322012.06 Unspecified NONE
3042008-03-06 20:27PSTYesBJS/CRBUSGS321012.11 Unspecified NONE
3032008-03-06 20:20PSTYesBJS/CRBUSGS331012.17 Unspecified NONE
3022008-03-06 20:14PSTYesBJS/CRBUSGS312012.22 Unspecified NONE
3012008-03-06 20:08PSTYesBJS/CRBUSGS323012.26 Unspecified NONE
3002008-03-06 20:02PSTYesBJS/CRBUSGS316012.31 Unspecified NONE
2992008-03-06 19:55PSTYesBJS/CRBUSGS303012.35 Unspecified NONE
2982008-03-06 19:33PSTYesBJS/CRBUSGS271012.50 Unspecified NONE
2972008-03-06 19:26PSTYesBJS/CRBUSGS255012.55 Unspecified NONE
2962008-03-06 19:21PSTYesBJS/CRBUSGS227012.58 Unspecified NONE
2952008-03-06 19:16PSTYesBJS/CRBUSGS221012.61 Unspecified NONE
2942008-03-06 19:07PSTYesBJS/CRBUSGS175012.68 Unspecified NONE
2932008-03-06 18:56PSTYesBJS/CRBUSGS128012.77 Unspecified NONE
2922008-03-06 18:50PSTYesBJS/CRBUSGS94312.82 Unspecified NONE
2912008-03-06 18:44PSTYesBJS/CRBUSGS67012.87 Unspecified NONE
2902008-03-06 18:39PSTYesBJS/CRBUSGS19712.91 Unspecified NONE
2892008-03-06 18:31PSTYesBJS/CRBUSGS-34412.97 Unspecified NONE
2882008-03-06 18:25PSTYesBJS/CRBUSGS-73113.02 Unspecified NONE
2872008-03-06 18:19PSTYesBJS/CRBUSGS-116013.06 Unspecified NONE
2862008-03-06 18:14PSTYesBJS/CRBUSGS-153013.10 Unspecified NONE
2852008-03-06 18:09PSTYesBJS/CRBUSGS-191013.12 Unspecified NONE
2842008-03-06 18:03PSTYesBJS/CRBUSGS-244013.15 Unspecified NONE
2832008-03-06 17:55PSTYesBJS/CRBUSGS-292013.18 Unspecified NONE
2822008-03-06 17:48PSTYesBJS/CRBUSGS-326013.19 Unspecified NONE
2812008-03-06 17:43PSTYesBJS/CRBUSGS-350013.19 Unspecified NONE
2802008-03-06 17:38PSTYesBJS/CRBUSGS-362013.19 Unspecified NONE
2792008-03-06 17:31PSTYesBJS/CRBUSGS-393013.18 Unspecified NONE
2782008-03-06 17:24PSTYesBJS/CRBUSGS-406013.16 Unspecified NONE
2772008-03-06 17:18PSTYesBJS/CRBUSGS-427013.15 Unspecified NONE
2762008-03-06 17:01PSTYesBJS/CRBUSGS-458013.07 Unspecified NONE
2752008-03-06 16:54PSTYesBJS/CRBUSGS-465013.04 Unspecified NONE
2742008-03-06 16:46PSTYesBJS/CRBUSGS-474013.00 Unspecified NONE
2732008-03-06 16:36PSTYesBJS/CRBUSGS-482012.93 Unspecified NONE
2722008-03-06 16:25PSTYesBJS/CRBUSGS-508012.85 Unspecified NONE
2712008-03-06 16:17PSTYesBJS/CRBUSGS-506012.79 Unspecified NONE
2702008-03-06 15:55PSTYesBJS/CRBUSGS-524012.63 Unspecified NONE
2692008-03-06 15:47PSTYesBJS/CRBUSGS-510012.56 Unspecified NONE
2682008-03-06 15:40PSTYesBJS/CRBUSGS-532012.50 Unspecified NONE
2672008-03-06 15:34PSTYesBJS/CRBUSGS-510012.45 Unspecified NONE
2662008-03-06 15:27PSTYesBJS/CRBUSGS-532012.40 Unspecified NONE
2652008-03-06 15:19PSTYesBJS/CRBUSGS-518012.33 Unspecified NONE
2642008-03-06 15:11PSTYesBJS/CRBUSGS-512012.27 Unspecified NONE
2632008-03-06 15:03PSTYesBJS/CRBUSGS-510012.20 Unspecified NONE
2622007-08-21 14:03PSTYesJBD/CBxUSGS-654011.76 Unspecified NONE
2612007-08-21 13:55PSTYesJBD/CBxUSGS-660011.74 Unspecified NONE
2602007-08-21 13:29PSTYesJBD/CBxUSGS-640011.68 Unspecified NONE
2592007-08-21 13:20PSTYesJBD/CBxUSGS-666011.65 Unspecified NONE
2582007-08-21 13:12PSTYesJBD/CBxUSGS-652011.62 Unspecified NONE
2572007-08-21 13:03PSTYesJBD/CBxUSGS-650011.58 Unspecified NONE
2562007-08-21 12:51PSTYesJBD/CBxUSGS-651011.54 Unspecified NONE
2552007-08-21 12:40PSTYesJBD/CBxUSGS-654011.50 Unspecified NONE
2542007-08-21 12:30PSTYesJBD/CBxUSGS-680011.45 Unspecified NONE
2532007-08-21 12:18PSTYesJBD/CBxUSGS-641011.40 Unspecified NONE
2522007-08-21 12:09PSTYesJBD/CBxUSGS-647011.37 Unspecified NONE
2512007-08-21 11:57PSTYesJBD/CBxUSGS-635011.32 Unspecified NONE
2502007-08-21 11:47PSTYesJBD/CBxUSGS-626011.28 Unspecified NONE
2492007-08-21 11:39PSTYesJBD/CBxUSGS-594011.25 Unspecified NONE
2482007-08-21 11:30PSTYesJBD/CBxUSGS-572011.23 Unspecified NONE
2472007-08-21 11:19PSTYesJBD/CBxUSGS-557011.19 Unspecified NONE
2462007-08-21 11:09PSTYesJBD/CBxUSGS-530011.16 Unspecified NONE
2452007-08-21 10:57PSTYesJBD/CBxUSGS-525011.11 Unspecified NONE
2442007-08-21 10:33PSTYesJBD/CBxUSGS-500011.02 Unspecified NONE
2432007-08-21 10:23PSTYesJBD/CBxUSGS-449011.00 Unspecified NONE
2422007-08-21 10:14PSTYesJBD/CBxUSGS-392010.99 Unspecified NONE
2412007-08-21 10:03PSTYesJBD/CBxUSGS-379010.95 Unspecified NONE
2402007-08-21 09:53PSTYesJBD/CBxUSGS-368010.89 Unspecified NONE
2392007-08-21 09:44PSTYesJBD/CBxUSGS-367010.82 Unspecified NONE
2382007-08-21 09:35PSTYesJBD/CBxUSGS-364010.76 Unspecified NONE
2372007-08-21 09:27PSTYesJBD/CBxUSGS-349010.71 Unspecified NONE
2362007-08-21 09:18PSTYesJBD/CBxUSGS-342010.66 Unspecified NONE
2352007-08-21 09:09PSTYesJBD/CBxUSGS-315010.60 Unspecified NONE
2342007-08-21 09:00PSTYesJBD/CBxUSGS-302010.55 Unspecified NONE
2332007-08-21 08:53PSTYesJBD/CBxUSGS-285010.52 Unspecified NONE
2322007-08-21 08:35PSTYesJBD/CBxUSGS-203010.42 Unspecified NONE
2312007-08-21 08:27PSTYesJBD/CBxUSGS-180010.38 Unspecified NONE
2302007-08-21 08:20PSTYesJBD/CBxUSGS-156010.34 Unspecified NONE
2292007-08-21 08:13PSTYesJBD/CBxUSGS-126010.31 Unspecified NONE
2282007-07-30 16:51PSTYesBJS/NBLUSGS-647011.53 Unspecified NONE
2272007-07-30 16:46PSTYesBJS/NBLUSGS-639011.50 Unspecified NONE
2262007-07-30 16:41PSTYesBJS/NBLUSGS-640011.48 Unspecified NONE
2252007-07-30 16:35PSTYesBJS/NBLUSGS-613011.45 Unspecified NONE
2242007-07-30 16:30PSTYesBJS/NBLUSGS-592011.42 Unspecified NONE
2232007-07-30 16:24PSTYesBJS/NBLUSGS-563011.41 Unspecified NONE
2222007-07-30 16:19PSTYesBJS/NBLUSGS-528011.39 Unspecified NONE
2212007-07-30 16:15PSTYesBJS/NBLUSGS-518011.38 Unspecified NONE
2202007-07-30 16:10PSTYesBJS/NBLUSGS-501011.35 Unspecified NONE
2192007-07-30 16:05PSTYesBJS/NBLUSGS-495011.32 Unspecified NONE
2182007-07-30 16:00PSTYesBJS/NBLUSGS-475011.28 Unspecified NONE
2172007-07-30 15:56PSTYesBJS/NBLUSGS-493011.24 Unspecified NONE
2162007-07-30 15:51PSTYesBJS/NBLUSGS-480011.20 Unspecified NONE
2152007-07-30 15:46PSTYesBJS/NBLUSGS-492011.15 Unspecified NONE
2142007-07-30 15:41PSTYesBJS/NBLUSGS-472011.12 Unspecified NONE
2132007-07-30 15:37PSTYesBJS/NBLUSGS-487011.08 Unspecified NONE
2122007-07-30 15:32PSTYesBJS/NBLUSGS-477011.04 Unspecified NONE
2112007-07-30 15:26PSTYesBJS/NBLUSGS-475011.00 Unspecified NONE
2102007-07-30 15:21PSTYesBJS/NBLUSGS-460010.96 Unspecified NONE
2092007-07-30 15:15PSTYesBJS/NBLUSGS-456010.92 Unspecified NONE
2082007-07-30 15:11PSTYesBJS/NBLUSGS-435010.88 Unspecified NONE
2072007-07-30 15:05PSTYesBJS/NBLUSGS-391010.84 Unspecified NONE
2062007-07-30 14:45PSTYesBJS/NBLUSGS-212010.64 Unspecified NONE
2052007-07-30 14:39PSTYesBJS/NBLUSGS-151010.57 Unspecified NONE
2042007-07-30 14:32PSTYesBJS/NBLUSGS-102010.53 Unspecified NONE
2032007-07-30 14:25PSTYesBJS/NBLUSGS-35910.50 Unspecified NONE
2022007-07-30 14:18PSTYesBJS/NBLUSGS16110.48 Unspecified NONE
2012007-07-30 14:11PSTYesBJS/NBLUSGS50910.48 Unspecified NONE
2002007-07-30 14:04PSTYesBJS/NBLUSGS56810.43 Unspecified NONE
1992007-07-30 13:59PSTYesBJS/NBLUSGS61610.50 Unspecified NONE
1982007-07-30 13:54PSTYesBJS/NBLUSGS74210.51 Unspecified NONE
1972007-07-30 13:47PSTYesBJS/NBLUSGS79610.54 Unspecified NONE
1962006-04-18 14:41PSTYes???USGS818011.73 Unspecified NONE
1952006-04-18 14:36PSTYes???USGS798011.76 Unspecified NONE
1942006-04-18 14:18PSTYes???USGS835011.85 Unspecified NONE
1932006-04-18 14:12PSTYes???USGS808011.88 Unspecified NONE
1922006-04-18 14:06PSTYes???USGS806011.93 Unspecified NONE
1912006-04-18 14:00PSTYes???USGS812011.96 Unspecified NONE
1902006-04-18 13:27PSTYes???USGS795012.14 Unspecified NONE
1892006-04-18 13:22PSTYes???USGS787012.17 Unspecified NONE
1882006-04-18 13:17PSTYes???USGS777012.19 Unspecified NONE
1872006-04-18 13:12PSTYes???USGS816012.22 Unspecified NONE
1862006-04-18 12:41PSTYes???USGS769012.38 Unspecified NONE
1852006-04-18 12:36PSTYes???USGS768012.40 Unspecified NONE
1842006-04-18 12:30PSTYes???USGS787012.44 Unspecified NONE
1832006-04-18 12:25PSTYes???USGS752012.45 Unspecified NONE
1822006-04-18 12:20PSTYes???USGS733012.47 Unspecified NONE
1812006-04-18 11:59PSTYes???USGS766012.58 Unspecified NONE
1802006-04-18 11:54PSTYes???USGS767012.61 Unspecified NONE
1792006-04-18 11:48PSTYes???USGS767012.63 Unspecified NONE
1782006-04-18 11:21PSTYes???USGS748012.76 Unspecified NONE
1772006-04-18 11:15PSTYes???USGS732012.78 Unspecified NONE
1762006-04-18 11:10PSTYes???USGS739012.81 Unspecified NONE
1752006-04-18 11:04PSTYes???USGS749012.84 Unspecified NONE
1742006-04-18 10:36PSTYes???USGS726012.98 Unspecified NONE
1732006-04-18 10:29PSTYes???USGS719013.00 Unspecified NONE
1722006-04-18 10:23PSTYes???USGS714013.03 Unspecified NONE
1712006-04-18 10:14PSTYes???USGS681013.06 Unspecified NONE
1702006-04-18 10:06PSTYes???USGS677013.11 Unspecified NONE
1692006-04-18 09:58PSTYes???USGS717013.14 Unspecified NONE
1682006-04-13 14:08PSTYes???USGS773011.61 Unspecified NONE
1672006-04-13 14:03PSTYes???USGS808011.61 Unspecified NONE
1662006-04-13 13:58PSTYes???USGS801011.62 Unspecified NONE
1652006-04-13 13:53PSTYes???USGS836011.63 Unspecified NONE
1642006-02-03 12:52PSTYes???USGS137010.85 Unspecified NONE
1632006-02-03 12:47PSTYes???USGS89010.85 Unspecified NONE
1622006-02-03 12:42PSTYes???USGS-47.010.86 Unspecified NONE
1612006-02-03 12:35PSTYes???USGS-87110.87 Unspecified NONE
1602006-02-03 12:29PSTYes???USGS-165010.88 Unspecified NONE
1592006-02-03 12:24PSTYes???USGS-209010.91 Unspecified NONE
1582006-02-03 12:19PSTYes???USGS-232010.90 Unspecified NONE
1572006-02-03 12:15PSTYes???USGS-257010.98 Unspecified NONE
1562006-02-03 12:09PSTYes???USGS-293011.00 Unspecified NONE
1552006-02-03 12:05PSTYes???USGS-324011.04 Unspecified NONE
1542006-02-03 11:59PSTYes???USGS-362011.06 Unspecified NONE
1532006-02-03 11:48PSTYes???USGS-394011.14 Unspecified NONE
1522006-02-03 11:43PSTYes???USGS-403011.16 Unspecified NONE
1512006-02-03 11:39PSTYes???USGS-434011.17 Unspecified NONE
1502006-02-03 11:34PSTYes???USGS-467011.18 Unspecified NONE
1492006-02-03 11:28PSTYes???USGS-500011.22 Unspecified NONE
1482006-02-03 11:23PSTYes???USGS-523011.26 Unspecified NONE
1472006-02-03 11:17PSTYes???USGS-562011.30 Unspecified NONE
1462006-02-03 11:12PSTYes???USGS-599011.34 Unspecified NONE
1452006-02-03 11:07PSTYes???USGS-568011.36 Unspecified NONE
1442006-02-03 11:02PSTYes???USGS-623011.37 Unspecified NONE
1432006-02-03 10:57PSTYes???USGS-636011.38 Unspecified NONE
1422006-02-03 10:52PSTYes???USGS-668011.38 Unspecified NONE
1412006-02-03 10:46PSTYes???USGS-656011.39 Unspecified NONE
1402006-02-03 10:40PSTYes???USGS-658011.30 Unspecified NONE
1392006-02-03 10:35PSTYes???USGS-728011.30 Unspecified NONE
1382006-02-03 10:30PSTYes???USGS-712011.30 Unspecified NONE
1372006-02-03 10:25PSTYes???USGS-742011.28 Unspecified NONE
1362006-02-03 10:19PSTYes???USGS-730011.25 Unspecified NONE
1352006-02-03 10:14PSTYes???USGS-761011.24 Unspecified NONE
1342006-02-03 10:08PSTYes???USGS-736011.22 Unspecified NONE
1332006-02-03 09:53PSTYes???USGS-765011.16 Unspecified NONE
1322006-02-03 09:47PSTYes???USGS-770011.13 Unspecified NONE
1312006-02-03 09:41PSTYes???USGS-766011.08 Unspecified NONE
1302006-02-03 09:35PSTYes???USGS-732011.07 Unspecified NONE
1292006-02-03 09:29PSTYes???USGS-755011.07 Unspecified NONE
1282005-11-22 15:14PSTYes???USGS-42009.67 Unspecified NONE
1272005-11-22 15:09PSTYes???USGS-41309.69 Unspecified NONE
1262005-11-22 15:03PSTYes???USGS-44109.73 Unspecified NONE
1252005-11-22 14:57PSTYes???USGS-45109.76 Unspecified NONE
1242005-11-22 14:51PSTYes???USGS-48209.78 Unspecified NONE
1232005-11-22 14:43PSTYes???USGS-50309.79 Unspecified NONE
1222005-11-22 14:36PSTYes???USGS-53309.80 Unspecified NONE
1212005-11-22 14:29PSTYes???USGS-54009.83 Unspecified NONE
1202005-11-22 14:21PSTYes???USGS-56509.84 Unspecified NONE
1192005-11-22 14:15PSTYes???USGS-56809.86 Unspecified NONE
1182005-11-22 14:07PSTYes???USGS-60909.86 Unspecified NONE
1172005-11-22 14:00PSTYes???USGS-62109.86 Unspecified NONE
1162005-11-22 13:54PSTYes???USGS-64409.86 Unspecified NONE
1152005-11-22 13:47PSTYes???USGS-64209.87 Unspecified NONE
1142005-11-22 13:40PSTYes???USGS-67209.87 Unspecified NONE
1132005-11-22 13:34PSTYes???USGS-65909.87 Unspecified NONE
1122005-11-22 13:28PSTYes???USGS-70209.87 Unspecified NONE
1112005-11-22 13:20PSTYes???USGS-69209.87 Unspecified NONE
1102005-11-22 13:13PSTYes???USGS-65809.88 Unspecified NONE
1092005-11-22 13:05PSTYes???USGS-69009.87 Unspecified NONE
1082005-11-22 12:58PSTYes???USGS-75409.86 Unspecified NONE
1072005-11-22 12:51PSTYes???USGS-71709.85 Unspecified NONE
1062005-11-22 12:26PSTYes???USGS-75909.74 Unspecified NONE
1052005-11-22 12:19PSTYes???USGS-73609.70 Unspecified NONE
1042005-11-22 12:12PSTYes???USGS-74709.65 Unspecified NONE
1032005-11-22 12:05PSTYes???USGS-72809.64 Unspecified NONE
1022005-11-22 11:42PSTYes???USGS-77909.55 Unspecified NONE
1012005-11-22 11:35PSTYes???USGS-74509.52 Unspecified NONE
1002005-11-22 11:28PSTYes???USGS-75809.49 Unspecified NONE
992005-11-22 11:22PSTYes???USGS-73709.47 Unspecified NONE
982005-11-22 11:09PSTYes???USGS-74209.41 Unspecified NONE
972005-11-22 11:03PSTYes???USGS-73009.38 Unspecified NONE
962005-11-22 10:57PSTYes???USGS-76209.34 Unspecified NONE
952005-11-22 10:50PSTYes???USGS-72509.31 Unspecified NONE
942005-11-22 10:38PSTYes???USGS-71909.24 Unspecified NONE
932005-11-22 10:32PSTYes???USGS-69409.20 Unspecified NONE
922005-11-22 10:24PSTYes???USGS-69609.17 Unspecified NONE
912005-11-22 10:18PSTYes???USGS-69309.13 Unspecified NONE
902005-11-22 09:48PSTYes???USGS-65508.96 Unspecified NONE
892005-11-22 09:42PSTYes???USGS-65008.92 Unspecified NONE
882005-11-22 09:35PSTYes???USGS-68408.88 Unspecified NONE
872005-11-22 09:29PSTYes???USGS-66308.85 Unspecified NONE
862005-11-22 09:23PSTYes???USGS-63108.81 Unspecified NONE
852005-11-22 09:17PSTYes???USGS-63508.77 Unspecified NONE
842005-11-22 09:10PSTYes???USGS-62208.75 Unspecified NONE
832005-11-22 09:03PSTYes???USGS-62308.70 Unspecified NONE
822005-11-22 08:56PSTYes???USGS-60708.67 Unspecified NONE
812005-11-22 08:49PSTYes???USGS-59708.64 Unspecified NONE
802005-11-22 08:41PSTYes???USGS-58008.61 Unspecified NONE
792005-11-22 08:34PSTYes???USGS-56108.56 Unspecified NONE
782005-11-22 08:28PSTYes???USGS-55408.52 Unspecified NONE
772005-11-22 08:21PSTYes???USGS-53308.51 Unspecified NONE
762005-11-22 08:14PSTYes???USGS-49308.50 Unspecified NONE
752005-11-22 08:06PSTYes???USGS-43708.51 Unspecified NONE
742005-11-22 07:58PSTYes???USGS-39808.52 Unspecified NONE
732005-11-22 07:50PSTYes???USGS-38808.45 Unspecified NONE
722005-11-22 07:42PSTYes???USGS-38608.40 Unspecified NONE
712005-11-22 07:35PSTYes???USGS-37408.34 Unspecified NONE
702005-11-22 07:29PSTYes???USGS-36508.31 Unspecified NONE
692005-11-22 07:23PSTYes???USGS-35008.26 Unspecified NONE
682005-11-22 07:16PSTYes???USGS-33708.21 Unspecified NONE
672005-11-22 07:09PSTYes???USGS-31508.17 Unspecified NONE
662005-07-21 14:17PSTYes???USGS-6068.88 Unspecified NONE
652005-07-21 14:11PSTYes???USGS-2428.82 Unspecified NONE
642005-07-21 14:06PSTYes???USGS-2988.75 Unspecified NONE
632005-07-21 14:01PSTYes???USGS-2738.75 Unspecified NONE
622005-07-21 13:54PSTYes???USGS-1518.71 Unspecified NONE
612005-07-21 13:48PSTYes???USGS-2248.70 Unspecified NONE
602005-07-21 13:42PSTYes???USGS-3248.72 Unspecified NONE
592005-07-21 13:37PSTYes???USGS-2658.72 Unspecified NONE
582005-07-21 13:31PSTYes???USGS13.08.75 Unspecified NONE
572005-07-21 13:25PSTYes???USGS1518.79 Unspecified NONE
562005-07-21 13:18PSTYes???USGS1548.84 Unspecified NONE
552005-07-21 13:11PSTYes???USGS-24.08.85 Unspecified NONE
542005-07-21 13:05PSTYes???USGS-1648.87 Unspecified NONE
532005-07-21 12:58PSTYes???USGS-6248.86 Unspecified NONE
522005-07-21 12:52PSTYes???USGS-11008.84 Unspecified NONE
512005-07-21 12:47PSTYes???USGS-14808.85 Unspecified NONE
502005-07-21 12:40PSTYes???USGS-18108.84 Unspecified NONE
492005-07-21 12:33PSTYes???USGS-17808.90 Unspecified NONE
482005-07-21 12:28PSTYes???USGS-18808.93 Unspecified NONE
472005-07-21 12:06PSTYes???USGS-22609.10 Unspecified NONE
462005-07-21 11:59PSTYes???USGS-23009.16 Unspecified NONE
452005-07-21 11:53PSTYes???USGS-22909.20 Unspecified NONE
442005-07-21 11:47PSTYes???USGS-24109.26 Unspecified NONE
432005-07-21 11:41PSTYes???USGS-24209.32 Unspecified NONE
422005-07-21 11:35PSTYes???USGS-24009.40 Unspecified NONE
412005-07-21 11:29PSTYes???USGS-25309.43 Unspecified NONE
402005-07-21 11:23PSTYes???USGS-25109.50 Unspecified NONE
392005-07-21 10:58PSTYes???USGS-29909.72 Unspecified NONE
382005-07-21 10:52PSTYes???USGS-29609.77 Unspecified NONE
372005-07-21 10:45PSTYes???USGS-29809.85 Unspecified NONE
362005-07-21 10:38PSTYes???USGS-30409.92 Unspecified NONE
352005-07-21 10:31PSTYes???USGS-31509.96 Unspecified NONE
342005-07-21 10:23PSTYes???USGS-323010.02 Unspecified NONE
332005-07-21 10:17PSTYes???USGS-333010.07 Unspecified NONE
322005-07-21 10:10PSTYes???USGS-343010.11 Unspecified NONE
312005-07-21 09:41PSTYes???USGS-311010.42 Unspecified NONE
302005-07-21 09:34PSTYes???USGS-313010.46 Unspecified NONE
292005-07-21 09:27PSTYes???USGS-304010.52 Unspecified NONE
282005-07-21 09:22PSTYes???USGS-308010.57 Unspecified NONE
272005-07-21 09:16PSTYes???USGS-301010.62 Unspecified NONE
262005-07-21 09:10PSTYes???USGS-292010.68 Unspecified NONE
252005-07-21 09:04PSTYes???USGS-275010.76 Unspecified NONE
242005-07-21 08:57PSTYes???USGS-274010.81 Unspecified NONE
232005-07-21 08:38PSTYes???USGS-254010.99 Unspecified NONE
222005-07-21 08:32PSTYes???USGS-250011.07 Unspecified NONE
212005-07-21 08:26PSTYes???USGS-253011.17 Unspecified NONE
202005-07-21 08:20PSTYes???USGS-247011.20 Unspecified NONE
192005-07-21 08:14PSTYes???USGS-250011.30 Unspecified NONE
182005-07-21 08:09PSTYes???USGS-236011.37 Unspecified NONE
172005-07-21 07:49PSTYes???USGS-190011.57 Unspecified NONE
162005-07-21 07:43PSTYes???USGS-195011.63 Unspecified NONE
152005-07-21 07:37PSTYes???USGS-195011.68 Unspecified NONE
142005-07-21 07:31PSTYes???USGS-203011.77 Unspecified NONE
132005-07-21 07:26PSTYes???USGS-216011.82 Unspecified NONE
122005-07-21 07:20PSTYes???USGS-212011.89 Unspecified NONE
112005-07-21 07:13PSTYes???USGS-229011.97 Unspecified NONE
102005-07-21 07:08PSTYes???USGS-231012.06 Unspecified NONE
92005-07-21 07:02PSTYes???USGS-237012.16 Unspecified NONE
82005-07-21 06:50PSTYes???USGS-288012.28 Unspecified NONE
72005-07-21 06:43PSTYes???USGS-307012.35 Unspecified NONE
62005-07-21 06:36PSTYes???USGS-330012.50 Unspecified NONE
52005-07-21 06:30PSTYes???USGS-342012.58 Unspecified NONE
42005-07-21 06:23PSTYes???USGS-328012.74 Unspecified NONE
32005-07-21 06:17PSTYes???USGS-320012.82 Unspecified NONE
22005-07-21 06:11PSTYes???USGS-276012.93 Unspecified NONE
12005-07-21 06:05PSTYes???USGS-272013.00 Unspecified NONE